Verner, Canada
Current Conditions -  °F | °C
As of 5:00 AM on Friday 19 Dec 2014 (Local Time) from CYSB Reporting Station
Few Clouds Few Clouds  
Wind Chill: -9°   Ceiling: Unl
Heat Index:   Visibility: 15mi
Dew Point:   Wind: 7mph
Humidity: 85%   Direction: 350°N
Pressure: 30.15"   Gusts: NA
Location:  46.4°N, 80.12°W
Report Text: CYSB 191000Z 35006KT 15SM FEW120 M16/M18 A3015 RMK AC1 SLP240
Loading
Personal Weather Stations






























Interactive Weather Map New forecast layout! Learn more

10-Day Weather Forecast

Advertisements
Track Severe Weather on mobile